Latest Weather Observations for Thevenard

IDS60801

Issued at 2:02 pm CDT Friday 19 December 2014 (issued every 30 minutes, with the page automatically refreshed every 10 minutes)

About weather observations | Map of weather stations | Latest weather observations for SA | Other Formats
Station Details ID: 018200 Name: THEVENARD WIND Lat: -32.18 Lon: 133.63 Height: 8.85 m
Data from the previous 72 hours. | See also: Recent months for locations in South Australia
Date/Time
CDT
Temp
°C
App
Temp
°C
Dew
Point
Rel
Hum
%
Delta-T
°C
Wind Press
QNH
hPa
Press
MSL
hPa
Rain
since 9 am
mm
Dir
 
Spd
km/h
Gust
km/h
Spd
kts
Gust
kts
19/02:00pm - - - - - S 32 37 17 20 - - -
19/01:30pm - - - - - S 30 35 16 19 - - -
19/01:00pm - - - - - S 26 32 14 17 - - -
19/12:30pm - - - - - S 24 30 13 16 - - -
19/12:00pm - - - - - S 24 30 13 16 - - -
19/11:30am - - - - - S 22 28 12 15 - - -
19/11:00am - - - - - SSE 19 22 10 12 - - -
19/10:30am - - - - - SSE 20 26 11 14 - - -
19/10:00am - - - - - SE 15 20 8 11 - - -
19/09:30am - - - - - SE 15 24 8 13 - - -
19/09:00am - - - - - ESE 17 26 9 14 - - -
19/08:30am - - - - - E 22 28 12 15 - - -
19/08:00am - - - - - E 22 26 12 14 - - -
19/07:30am - - - - - E 22 26 12 14 - - -
19/07:00am - - - - - E 22 28 12 15 - - -
19/06:30am - - - - - E 22 28 12 15 - - -
19/06:00am - - - - - ESE 22 28 12 15 - - -
19/05:30am - - - - - ESE 26 32 14 17 - - -
19/05:00am - - - - - ESE 26 30 14 16 - - -
19/04:30am - - - - - ESE 24 30 13 16 - - -
19/04:00am - - - - - ESE 20 26 11 14 - - -
19/03:30am - - - - - E 22 28 12 15 - - -
19/03:00am - - - - - E 22 28 12 15 - - -
19/02:30am - - - - - SE 20 28 11 15 - - -
19/02:00am - - - - - SE 22 30 12 16 - - -
19/01:30am - - - - - SSE 22 28 12 15 - - -
19/01:00am - - - - - SSE 24 30 13 16 - - -
19/12:30am - - - - - SE 24 30 13 16 - - -
19/12:00am - - - - - SSE 26 32 14 17 - - -
 
Date/Time
CDT
Temp
°C
App
Temp
°C
Dew
Point
Rel
Hum
%
Delta-T
°C
Wind Press
QNH
hPa
Press
MSL
hPa
Rain
since 9 am
mm
Dir
 
Spd
km/h
Gust
km/h
Spd
kts
Gust
kts
18/11:30pm - - - - - SSE 26 33 14 18 - - -
18/11:00pm - - - - - SSE 28 33 15 18 - - -
18/10:30pm - - - - - SSE 28 33 15 18 - - -
18/10:00pm - - - - - SSE 26 33 14 18 - - -
18/09:30pm - - - - - SSE 28 33 15 18 - - -
18/09:00pm - - - - - SSE 28 33 15 18 - - -
18/08:30pm - - - - - S 28 35 15 19 - - -
18/08:00pm - - - - - S 28 33 15 18 - - -
18/07:30pm - - - - - S 28 33 15 18 - - -
18/07:00pm - - - - - S 28 33 15 18 - - -
18/06:30pm - - - - - S 30 37 16 20 - - -
18/06:00pm - - - - - S 32 35 17 19 - - -
18/05:30pm - - - - - S 30 35 16 19 - - -
18/05:00pm - - - - - S 28 33 15 18 - - -
18/04:30pm - - - - - S 30 35 16 19 - - -
18/04:00pm - - - - - S 30 37 16 20 - - -
18/03:30pm - - - - - S 32 37 17 20 - - -
18/03:00pm - - - - - S 30 37 16 20 - - -
18/02:30pm - - - - - S 33 39 18 21 - - -
18/02:00pm - - - - - S 33 39 18 21 - - -
18/01:30pm - - - - - S 30 35 16 19 - - -
18/01:00pm - - - - - S 28 37 15 20 - - -
18/12:30pm - - - - - SW 20 30 11 16 - - -
18/12:00pm - - - - - S 24 28 13 15 - - -
18/11:30am - - - - - S 24 26 13 14 - - -
18/11:00am - - - - - S 24 30 13 16 - - -
18/10:30am - - - - - S 24 32 13 17 - - -
18/10:00am - - - - - S 24 28 13 15 - - -
18/09:30am - - - - - S 22 28 12 15 - - -
18/09:00am - - - - - S 19 20 10 11 - - -
18/08:30am - - - - - S 20 24 11 13 - - -
18/08:00am - - - - - S 20 24 11 13 - - -
18/07:30am - - - - - S 20 26 11 14 - - -
18/07:00am - - - - - S 19 24 10 13 - - -
18/06:30am - - - - - S 17 20 9 11 - - -
18/06:00am - - - - - S 20 26 11 14 - - -
18/05:30am - - - - - S 17 24 9 13 - - -
18/05:00am - - - - - SSE 13 19 7 10 - - -
18/04:30am - - - - - ESE 7 15 4 8 - - -
18/04:00am - - - - - E 11 15 6 8 - - -
18/03:30am - - - - - E 13 17 7 9 - - -
18/03:00am - - - - - SSE 17 22 9 12 - - -
18/02:30am - - - - - SE 20 24 11 13 - - -
18/02:00am - - - - - SSE 24 28 13 15 - - -
18/01:30am - - - - - SSE 26 32 14 17 - - -
18/01:00am - - - - - SSE 24 28 13 15 - - -
18/12:30am - - - - - SE 20 26 11 14 - - -
18/12:00am - - - - - SSE 24 32 13 17 - - -
 
Date/Time
CDT
Temp
°C
App
Temp
°C
Dew
Point
Rel
Hum
%
Delta-T
°C
Wind Press
QNH
hPa
Press
MSL
hPa
Rain
since 9 am
mm
Dir
 
Spd
km/h
Gust
km/h
Spd
kts
Gust
kts
17/11:30pm - - - - - SSE 24 30 13 16 - - -
17/11:00pm - - - - - SSE 22 30 12 16 - - -
17/10:30pm - - - - - SSE 24 30 13 16 - - -
17/10:00pm - - - - - SSE 26 33 14 18 - - -
17/09:30pm - - - - - S 32 41 17 22 - - -
17/09:00pm - - - - - S 35 41 19 22 - - -
17/08:30pm - - - - - SSE 30 37 16 20 - - -
17/08:00pm - - - - - SSE 32 39 17 21 - - -
17/07:30pm - - - - - S 37 44 20 24 - - -
17/07:00pm - - - - - S 39 44 21 24 - - -
17/06:30pm - - - - - S 39 46 21 25 - - -
17/06:00pm - - - - - SSW 37 44 20 24 - - -
17/05:30pm - - - - - SSW 39 46 21 25 - - -
17/05:00pm - - - - - SSW 37 44 20 24 - - -
17/04:30pm - - - - - S 35 41 19 22 - - -
17/04:00pm - - - - - S 30 35 16 19 - - -
17/03:30pm - - - - - S 26 30 14 16 - - -
17/03:00pm - - - - - S 26 30 14 16 - - -
17/02:30pm - - - - - S 28 32 15 17 - - -
17/02:00pm - - - - - SSE 28 32 15 17 - - -
17/01:30pm - - - - - SSE 24 28 13 15 - - -
17/01:00pm - - - - - S 20 24 11 13 - - -
17/12:30pm - - - - - S 15 19 8 10 - - -
17/12:00pm - - - - - SSW 9 13 5 7 - - -
17/11:30am - - - - - SSW 9 11 5 6 - - -
17/11:00am - - - - - SW 7 11 4 6 - - -
17/10:30am - - - - - S 6 7 3 4 - - -
17/10:00am - - - - - SSE 6 9 3 5 - - -
17/09:30am - - - - - ESE 6 9 3 5 - - -
17/09:00am - - - - - E 9 13 5 7 - - -
17/08:30am - - - - - E 11 17 6 9 - - -
17/08:00am - - - - - E 15 20 8 11 - - -
17/07:30am - - - - - E 17 20 9 11 - - -
17/07:00am - - - - - E 13 17 7 9 - - -
17/06:30am - - - - - E 15 19 8 10 - - -
17/06:00am - - - - - E 15 19 8 10 - - -
17/05:30am - - - - - E 17 20 9 11 - - -
17/05:00am - - - - - E 17 19 9 10 - - -
17/04:30am - - - - - E 17 22 9 12 - - -
17/04:00am - - - - - SSE 11 19 6 10 - - -
17/03:30am - - - - - SE 13 20 7 11 - - -
17/03:00am - - - - - S 17 26 9 14 - - -
17/02:30am - - - - - S 19 24 10 13 - - -
17/02:00am - - - - - S 15 22 8 12 - - -
17/01:30am - - - - - SSE 19 22 10 12 - - -
17/01:00am - - - - - SSE 19 22 10 12 - - -
17/12:30am - - - - - SSE 19 26 10 14 - - -
17/12:00am - - - - - SSE 20 26 11 14 - - -
 
Date/Time
CDT
Temp
°C
App
Temp
°C
Dew
Point
Rel
Hum
%
Delta-T
°C
Wind Press
QNH
hPa
Press
MSL
hPa
Rain
since 9 am
mm
Dir
 
Spd
km/h
Gust
km/h
Spd
kts
Gust
kts
16/11:30pm - - - - - S 22 28 12 15 - - -
16/11:00pm - - - - - S 22 30 12 16 - - -
16/10:30pm - - - - - S 28 35 15 19 - - -
16/10:00pm - - - - - SSW 26 37 14 20 - - -
16/09:30pm - - - - - SSW 28 33 15 18 - - -
16/09:00pm - - - - - SSW 30 37 16 20 - - -
16/08:30pm - - - - - SSW 30 37 16 20 - - -
16/08:00pm - - - - - SSW 32 37 17 20 - - -
16/07:30pm - - - - - SSW 30 39 16 21 - - -
16/07:00pm - - - - - SSW 33 41 18 22 - - -
16/06:30pm - - - - - SSW 32 39 17 21 - - -
16/06:00pm - - - - - SSW 33 43 18 23 - - -
16/05:30pm - - - - - SSW 33 41 18 22 - - -
16/05:00pm - - - - - SSW 33 41 18 22 - - -
16/04:30pm - - - - - SW 33 44 18 24 - - -
16/04:00pm - - - - - SW 32 37 17 20 - - -
16/03:30pm - - - - - SW 32 41 17 22 - - -
16/03:00pm - - - - - SW 33 41 18 22 - - -
16/02:30pm - - - - - SW 35 41 19 22 - - -

Other Formats:

Comma delimited format used in spreadsheet applications
http://www.bom.gov.au/fwo/IDS60801/IDS60801.95653.axf

JavaScript Object Notation format (JSON) in row-major order
http://www.bom.gov.au/fwo/IDS60801/IDS60801.95653.json